sensor_id;sensor_type;location;lat;lon;timestamp;pressure;altitude;pressure_sealevel;temperature;humidity
65131;BME280;51709;54.912;8.316;2023-05-03T00:03:01;102791.28;;;6.92;60.89
65131;BME280;51709;54.912;8.316;2023-05-03T00:08:24;102793.00;;;6.93;60.77
65131;BME280;51709;54.912;8.316;2023-05-03T00:13:45;102781.91;;;6.91;61.01
65131;BME280;51709;54.912;8.316;2023-05-03T00:19:06;102794.56;;;6.88;61.00
65131;BME280;51709;54.912;8.316;2023-05-03T00:24:37;102800.50;;;6.87;60.82
65131;BME280;51709;54.912;8.316;2023-05-03T00:29:57;102798.81;;;6.88;61.19
65131;BME280;51709;54.912;8.316;2023-05-03T00:35:19;102797.13;;;6.88;61.05
65131;BME280;51709;54.912;8.316;2023-05-03T00:40:40;102808.19;;;6.89;60.92
65131;BME280;51709;54.912;8.316;2023-05-03T00:46:02;102799.69;;;6.90;61.26
65131;BME280;51709;54.912;8.316;2023-05-03T00:51:36;102801.38;;;6.88;61.09
65131;BME280;51709;54.912;8.316;2023-05-03T00:56:56;102802.19;;;6.87;61.18
65131;BME280;51709;54.912;8.316;2023-05-03T01:02:17;102807.13;;;6.81;61.37
65131;BME280;51709;54.912;8.316;2023-05-03T01:08:08;102814.00;;;6.83;61.24
65131;BME280;51709;54.912;8.316;2023-05-03T01:13:40;102818.25;;;6.83;61.16
65131;BME280;51709;54.912;8.316;2023-05-03T01:19:12;102819.78;;;6.77;61.05
65131;BME280;51709;54.912;8.316;2023-05-03T01:24:40;102810.38;;;6.75;61.16
65131;BME280;51709;54.912;8.316;2023-05-03T01:30:03;102822.22;;;6.73;61.46
65131;BME280;51709;54.912;8.316;2023-05-03T01:40:49;102804.34;;;6.71;61.63
65131;BME280;51709;54.912;8.316;2023-05-03T01:46:13;102820.56;;;6.73;61.66
65131;BME280;51709;54.912;8.316;2023-05-03T01:51:37;102826.41;;;6.71;61.91
65131;BME280;51709;54.912;8.316;2023-05-03T01:56:57;102826.28;;;6.66;61.75
65131;BME280;51709;54.912;8.316;2023-05-03T02:02:18;102836.44;;;6.63;61.95
65131;BME280;51709;54.912;8.316;2023-05-03T02:07:39;102822.72;;;6.59;61.63
65131;BME280;51709;54.912;8.316;2023-05-03T02:13:00;102820.91;;;6.55;61.97
65131;BME280;51709;54.912;8.316;2023-05-03T02:18:21;102828.47;;;6.52;62.07
65131;BME280;51709;54.912;8.316;2023-05-03T02:23:44;102819.91;;;6.50;61.88
65131;BME280;51709;54.912;8.316;2023-05-03T02:29:04;102829.28;;;6.51;62.01
65131;BME280;51709;54.912;8.316;2023-05-03T02:34:26;102823.38;;;6.52;61.44
65131;BME280;51709;54.912;8.316;2023-05-03T02:39:47;102811.47;;;6.53;61.39
65131;BME280;51709;54.912;8.316;2023-05-03T02:45:09;102831.03;;;6.52;61.25
65131;BME280;51709;54.912;8.316;2023-05-03T02:50:31;102827.56;;;6.50;61.00
65131;BME280;51709;54.912;8.316;2023-05-03T02:55:52;102818.94;;;6.45;61.39
65131;BME280;51709;54.912;8.316;2023-05-03T03:01:13;102820.66;;;6.46;61.34
65131;BME280;51709;54.912;8.316;2023-05-03T03:06:34;102808.78;;;6.48;61.38
65131;BME280;51709;54.912;8.316;2023-05-03T03:11:55;102808.91;;;6.53;61.56
65131;BME280;51709;54.912;8.316;2023-05-03T03:17:15;102810.63;;;6.52;61.65
65131;BME280;51709;54.912;8.316;2023-05-03T03:22:37;102805.47;;;6.51;61.67
65131;BME280;51709;54.912;8.316;2023-05-03T03:27:58;102813.88;;;6.46;61.78
65131;BME280;51709;54.912;8.316;2023-05-03T03:33:19;102807.00;;;6.44;62.23
65131;BME280;51709;54.912;8.316;2023-05-03T03:38:45;102801.84;;;6.42;62.63
65131;BME280;51709;54.912;8.316;2023-05-03T03:44:07;102819.75;;;6.44;62.61
65131;BME280;51709;54.912;8.316;2023-05-03T03:49:28;102813.00;;;6.46;62.71
65131;BME280;51709;54.912;8.316;2023-05-03T03:54:49;102821.59;;;6.50;62.36
65131;BME280;51709;54.912;8.316;2023-05-03T04:00:10;102819.97;;;6.52;62.50
65131;BME280;51709;54.912;8.316;2023-05-03T04:05:31;102816.63;;;6.54;62.41
65131;BME280;51709;54.912;8.316;2023-05-03T04:10:54;102821.00;;;6.58;62.30
65131;BME280;51709;54.912;8.316;2023-05-03T04:16:15;102828.78;;;6.63;62.37
65131;BME280;51709;54.912;8.316;2023-05-03T04:21:37;102829.75;;;6.68;62.58
65131;BME280;51709;54.912;8.316;2023-05-03T04:26:58;102829.06;;;6.74;62.37
65131;BME280;51709;54.912;8.316;2023-05-03T04:32:24;102835.94;;;6.76;62.64
65131;BME280;51709;54.912;8.316;2023-05-03T04:37:48;102835.03;;;6.74;62.33
65131;BME280;51709;54.912;8.316;2023-05-03T04:43:13;102844.38;;;6.74;62.46
65131;BME280;51709;54.912;8.316;2023-05-03T04:48:37;102841.88;;;6.75;62.58
65131;BME280;51709;54.912;8.316;2023-05-03T04:53:58;102841.19;;;6.81;62.43
65131;BME280;51709;54.912;8.316;2023-05-03T04:59:19;102849.81;;;6.86;62.54
65131;BME280;51709;54.912;8.316;2023-05-03T05:04:41;102859.44;;;6.97;62.36
65131;BME280;51709;54.912;8.316;2023-05-03T05:10:03;102857.13;;;7.06;62.32
65131;BME280;51709;54.912;8.316;2023-05-03T05:15:24;102864.13;;;7.13;62.28
65131;BME280;51709;54.912;8.316;2023-05-03T05:20:45;102870.16;;;7.15;62.26
65131;BME280;51709;54.912;8.316;2023-05-03T05:26:07;102866.00;;;7.19;62.28
65131;BME280;51709;54.912;8.316;2023-05-03T05:31:31;102873.69;;;7.20;62.42
65131;BME280;51709;54.912;8.316;2023-05-03T05:36:53;102873.03;;;7.28;62.45
65131;BME280;51709;54.912;8.316;2023-05-03T05:42:16;102881.84;;;7.40;62.20
65131;BME280;51709;54.912;8.316;2023-05-03T05:47:37;102883.00;;;7.53;62.13
65131;BME280;51709;54.912;8.316;2023-05-03T05:52:58;102894.25;;;7.60;62.00
65131;BME280;51709;54.912;8.316;2023-05-03T05:58:22;102894.44;;;7.68;62.06
65131;BME280;51709;54.912;8.316;2023-05-03T06:03:46;102888.06;;;7.85;61.81
65131;BME280;51709;54.912;8.316;2023-05-03T06:09:07;102884.34;;;8.09;61.76
65131;BME280;51709;54.912;8.316;2023-05-03T06:14:45;102893.31;;;8.31;61.45
65131;BME280;51709;54.912;8.316;2023-05-03T06:20:24;102895.22;;;8.40;61.21
65131;BME280;51709;54.912;8.316;2023-05-03T06:25:47;102893.22;;;8.67;61.25
65131;BME280;51709;54.912;8.316;2023-05-03T06:31:09;102902.06;;;8.83;60.77
65131;BME280;51709;54.912;8.316;2023-05-03T06:36:30;102907.47;;;8.97;60.46
65131;BME280;51709;54.912;8.316;2023-05-03T06:41:51;102915.16;;;8.97;60.31
65131;BME280;51709;54.912;8.316;2023-05-03T06:47:12;102910.16;;;9.03;60.19
65131;BME280;51709;54.912;8.316;2023-05-03T06:52:34;102924.69;;;9.04;60.06
65131;BME280;51709;54.912;8.316;2023-05-03T06:57:55;102915.41;;;9.09;60.46
65131;BME280;51709;54.912;8.316;2023-05-03T07:03:16;102914.66;;;9.15;60.42
65131;BME280;51709;54.912;8.316;2023-05-03T07:08:36;102923.19;;;9.15;60.27
65131;BME280;51709;54.912;8.316;2023-05-03T07:13:57;102925.66;;;9.09;59.95
65131;BME280;51709;54.912;8.316;2023-05-03T07:19:18;102925.44;;;8.98;59.82
65131;BME280;51709;54.912;8.316;2023-05-03T07:24:39;102928.00;;;8.98;59.45
65131;BME280;51709;54.912;8.316;2023-05-03T07:29:59;102930.53;;;8.97;59.57
65131;BME280;51709;54.912;8.316;2023-05-03T07:35:20;102927.16;;;8.99;59.43
65131;BME280;51709;54.912;8.316;2023-05-03T07:40:42;102916.91;;;8.99;59.42
65131;BME280;51709;54.912;8.316;2023-05-03T07:46:04;102930.63;;;9.03;59.18
65131;BME280;51709;54.912;8.316;2023-05-03T07:51:24;102922.22;;;9.08;59.31
65131;BME280;51709;54.912;8.316;2023-05-03T07:56:45;102936.06;;;9.18;59.15
65131;BME280;51709;54.912;8.316;2023-05-03T08:02:06;102931.09;;;9.28;58.98
65131;BME280;51709;54.912;8.316;2023-05-03T08:07:27;102936.25;;;9.29;58.86
65131;BME280;51709;54.912;8.316;2023-05-03T08:12:47;102936.44;;;9.38;58.78
65131;BME280;51709;54.912;8.316;2023-05-03T08:18:08;102933.81;;;9.35;58.24
65131;BME280;51709;54.912;8.316;2023-05-03T08:23:29;102945.72;;;9.33;58.46
65131;BME280;51709;54.912;8.316;2023-05-03T08:28:50;102934.84;;;9.45;58.01
65131;BME280;51709;54.912;8.316;2023-05-03T08:34:11;102936.75;;;9.57;57.84
65131;BME280;51709;54.912;8.316;2023-05-03T08:39:32;102953.16;;;9.67;57.39
65131;BME280;51709;54.912;8.316;2023-05-03T08:44:53;102943.94;;;9.78;57.39
65131;BME280;51709;54.912;8.316;2023-05-03T08:50:14;102950.25;;;10.00;57.01
65131;BME280;51709;54.912;8.316;2023-05-03T08:55:36;102958.97;;;10.10;56.77
65131;BME280;51709;54.912;8.316;2023-05-03T09:01:03;102955.97;;;10.38;55.98
65131;BME280;51709;54.912;8.316;2023-05-03T09:06:24;102961.22;;;10.47;55.57
65131;BME280;51709;54.912;8.316;2023-05-03T09:11:48;102949.38;;;10.55;55.47
65131;BME280;51709;54.912;8.316;2023-05-03T09:17:16;102946.47;;;11.01;54.84
65131;BME280;51709;54.912;8.316;2023-05-03T09:22:49;102960.44;;;11.25;54.10
65131;BME280;51709;54.912;8.316;2023-05-03T09:28:15;102963.13;;;11.34;54.10
65131;BME280;51709;54.912;8.316;2023-05-03T09:33:36;102970.94;;;11.45;53.60
65131;BME280;51709;54.912;8.316;2023-05-03T09:38:56;102970.84;;;11.34;53.39
65131;BME280;51709;54.912;8.316;2023-05-03T09:44:17;102975.53;;;10.94;53.60
65131;BME280;51709;54.912;8.316;2023-05-03T09:49:38;102976.09;;;10.70;53.73
65131;BME280;51709;54.912;8.316;2023-05-03T09:54:58;102977.38;;;10.40;54.05
65131;BME280;51709;54.912;8.316;2023-05-03T10:00:19;102985.59;;;10.18;54.28
65131;BME280;51709;54.912;8.316;2023-05-03T10:05:48;102977.81;;;10.11;54.28
65131;BME280;51709;54.912;8.316;2023-05-03T10:11:12;102983.78;;;10.10;54.26
65131;BME280;51709;54.912;8.316;2023-05-03T10:16:36;102980.47;;;10.18;54.11
65131;BME280;51709;54.912;8.316;2023-05-03T10:22:05;102984.03;;;10.28;53.91
65131;BME280;51709;54.912;8.316;2023-05-03T10:38:29;102989.69;;;10.62;53.83
65131;BME280;51709;54.912;8.316;2023-05-03T10:43:51;102991.47;;;10.68;53.64
65131;BME280;51709;54.912;8.316;2023-05-03T10:49:23;102969.69;;;10.41;53.83
65131;BME280;51709;54.912;8.316;2023-05-03T10:54:45;102984.94;;;10.32;53.65
65131;BME280;51709;54.912;8.316;2023-05-03T11:00:33;102975.56;;;10.36;53.96
65131;BME280;51709;54.912;8.316;2023-05-03T11:05:56;102977.50;;;10.46;54.04
65131;BME280;51709;54.912;8.316;2023-05-03T11:11:17;102974.19;;;10.56;53.96
65131;BME280;51709;54.912;8.316;2023-05-03T11:16:39;102980.56;;;10.85;53.89
65131;BME280;51709;54.912;8.316;2023-05-03T11:22:07;102987.56;;;11.00;53.51
65131;BME280;51709;54.912;8.316;2023-05-03T11:27:28;102980.06;;;11.18;53.09
65131;BME280;51709;54.912;8.316;2023-05-03T11:32:48;102982.72;;;11.26;53.15
65131;BME280;51709;54.912;8.316;2023-05-03T11:38:10;102992.97;;;11.21;53.07
65131;BME280;51709;54.912;8.316;2023-05-03T11:43:30;102992.16;;;11.25;52.67
65131;BME280;51709;54.912;8.316;2023-05-03T11:48:51;102997.34;;;11.30;52.61
65131;BME280;51709;54.912;8.316;2023-05-03T11:54:13;102992.13;;;11.24;52.48
65131;BME280;51709;54.912;8.316;2023-05-03T11:59:40;102983.53;;;11.19;52.59
65131;BME280;51709;54.912;8.316;2023-05-03T12:05:01;102990.66;;;11.48;52.16
65131;BME280;51709;54.912;8.316;2023-05-03T12:10:30;102990.38;;;12.09;51.79
65131;BME280;51709;54.912;8.316;2023-05-03T12:15:57;102990.88;;;13.02;50.91
65131;BME280;51709;54.912;8.316;2023-05-03T12:21:45;102982.41;;;13.85;49.85
65131;BME280;51709;54.912;8.316;2023-05-03T12:27:23;102996.16;;;14.12;49.25
65131;BME280;51709;54.912;8.316;2023-05-03T12:32:47;102984.84;;;14.61;49.00
65131;BME280;51709;54.912;8.316;2023-05-03T12:38:10;102988.03;;;15.22;48.07
65131;BME280;51709;54.912;8.316;2023-05-03T12:43:36;103001.56;;;15.63;47.53
65131;BME280;51709;54.912;8.316;2023-05-03T12:48:57;102995.44;;;15.77;47.03
65131;BME280;51709;54.912;8.316;2023-05-03T12:54:18;102996.28;;;15.79;46.56
65131;BME280;51709;54.912;8.316;2023-05-03T12:59:39;102983.81;;;15.10;46.63
65131;BME280;51709;54.912;8.316;2023-05-03T13:05:03;102983.22;;;14.29;47.19
65131;BME280;51709;54.912;8.316;2023-05-03T13:10:31;102978.09;;;13.84;47.14
65131;BME280;51709;54.912;8.316;2023-05-03T13:15:52;102974.59;;;13.34;47.52
65131;BME280;51709;54.912;8.316;2023-05-03T13:21:13;102967.81;;;13.61;47.20
65131;BME280;51709;54.912;8.316;2023-05-03T13:26:34;102962.59;;;14.06;47.01
65131;BME280;51709;54.912;8.316;2023-05-03T13:31:55;102952.13;;;14.60;46.28
65131;BME280;51709;54.912;8.316;2023-05-03T13:37:16;102949.56;;;14.48;46.15
65131;BME280;51709;54.912;8.316;2023-05-03T13:42:38;102946.28;;;13.89;46.58
65131;BME280;51709;54.912;8.316;2023-05-03T13:47:58;102948.84;;;13.48;47.00
65131;BME280;51709;54.912;8.316;2023-05-03T13:53:39;102954.81;;;13.16;47.13
65131;BME280;51709;54.912;8.316;2023-05-03T13:58:59;102958.19;;;12.93;47.36
65131;BME280;51709;54.912;8.316;2023-05-03T14:04:20;102955.53;;;12.78;47.41
65131;BME280;51709;54.912;8.316;2023-05-03T14:09:41;102946.00;;;12.54;47.65
65131;BME280;51709;54.912;8.316;2023-05-03T14:15:02;102939.00;;;12.29;47.99
65131;BME280;51709;54.912;8.316;2023-05-03T14:20:23;102938.06;;;12.18;47.97
65131;BME280;51709;54.912;8.316;2023-05-03T14:25:44;102933.81;;;12.18;47.85
65131;BME280;51709;54.912;8.316;2023-05-03T14:31:06;102929.69;;;12.52;48.04
65131;BME280;51709;54.912;8.316;2023-05-03T14:36:27;102928.97;;;12.96;47.64
65131;BME280;51709;54.912;8.316;2023-05-03T14:41:54;102926.47;;;13.29;47.35
65131;BME280;51709;54.912;8.316;2023-05-03T14:47:15;102917.91;;;13.50;47.43
65131;BME280;51709;54.912;8.316;2023-05-03T14:52:36;102928.22;;;13.56;47.09
65131;BME280;51709;54.912;8.316;2023-05-03T14:57:57;102927.38;;;13.57;46.86
65131;BME280;51709;54.912;8.316;2023-05-03T15:03:18;102913.59;;;13.60;46.99
65131;BME280;51709;54.912;8.316;2023-05-03T15:08:38;102912.72;;;13.89;46.84
65131;BME280;51709;54.912;8.316;2023-05-03T15:13:59;102918.72;;;14.12;46.64
65131;BME280;51709;54.912;8.316;2023-05-03T15:19:20;102909.22;;;14.19;46.24
65131;BME280;51709;54.912;8.316;2023-05-03T15:24:41;102912.72;;;13.89;46.19
65131;BME280;51709;54.912;8.316;2023-05-03T15:30:01;102914.44;;;13.83;46.13
65131;BME280;51709;54.912;8.316;2023-05-03T15:35:24;102905.78;;;14.06;45.97
65131;BME280;51709;54.912;8.316;2023-05-03T15:40:45;102908.06;;;14.90;46.07
65131;BME280;51709;54.912;8.316;2023-05-03T15:46:05;102902.59;;;16.27;46.36
65131;BME280;51709;54.912;8.316;2023-05-03T15:51:27;102910.38;;;18.84;43.06
65131;BME280;51709;54.912;8.316;2023-05-03T15:56:48;102906.97;;;21.07;40.91
65131;BME280;51709;54.912;8.316;2023-05-03T16:02:09;102891.63;;;22.23;38.91
65131;BME280;51709;54.912;8.316;2023-05-03T16:07:30;102899.28;;;21.54;39.47
65131;BME280;51709;54.912;8.316;2023-05-03T16:12:51;102895.75;;;21.55;38.50
65131;BME280;51709;54.912;8.316;2023-05-03T16:18:11;102896.91;;;20.06;39.18
65131;BME280;51709;54.912;8.316;2023-05-03T16:23:32;102887.47;;;20.02;39.26
65131;BME280;51709;54.912;8.316;2023-05-03T16:28:53;102896.19;;;20.01;39.87
65131;BME280;51709;54.912;8.316;2023-05-03T16:34:13;102890.28;;;19.61;40.43
65131;BME280;51709;54.912;8.316;2023-05-03T16:39:34;102890.53;;;17.93;41.41
65131;BME280;51709;54.912;8.316;2023-05-03T16:44:55;102880.47;;;16.67;41.90
65131;BME280;51709;54.912;8.316;2023-05-03T16:50:16;102880.13;;;15.38;42.27
65131;BME280;51709;54.912;8.316;2023-05-03T16:55:37;102869.53;;;14.39;42.29
65131;BME280;51709;54.912;8.316;2023-05-03T17:00:57;102864.59;;;13.50;42.61
65131;BME280;51709;54.912;8.316;2023-05-03T17:06:18;102864.50;;;12.74;42.93
65131;BME280;51709;54.912;8.316;2023-05-03T17:11:39;102865.19;;;12.25;42.92
65131;BME280;51709;54.912;8.316;2023-05-03T17:16:59;102855.56;;;11.95;43.04
65131;BME280;51709;54.912;8.316;2023-05-03T17:22:20;102860.44;;;11.51;43.59
65131;BME280;51709;54.912;8.316;2023-05-03T17:27:41;102861.09;;;11.29;43.73
65131;BME280;51709;54.912;8.316;2023-05-03T17:33:03;102856.13;;;11.50;44.08
65131;BME280;51709;54.912;8.316;2023-05-03T17:38:24;102844.31;;;11.74;43.93
65131;BME280;51709;54.912;8.316;2023-05-03T17:43:45;102841.69;;;11.71;44.28
65131;BME280;51709;54.912;8.316;2023-05-03T17:49:05;102848.59;;;11.77;44.37
65131;BME280;51709;54.912;8.316;2023-05-03T17:54:29;102833.97;;;11.71;44.70
65131;BME280;51709;54.912;8.316;2023-05-03T17:59:49;102837.34;;;11.61;44.67
65131;BME280;51709;54.912;8.316;2023-05-03T18:05:11;102842.38;;;11.44;45.00
65131;BME280;51709;54.912;8.316;2023-05-03T18:10:34;102842.31;;;11.36;44.87
65131;BME280;51709;54.912;8.316;2023-05-03T18:15:55;102837.03;;;11.20;45.26
65131;BME280;51709;54.912;8.316;2023-05-03T18:21:15;102842.84;;;10.99;45.41
65131;BME280;51709;54.912;8.316;2023-05-03T18:26:38;102842.69;;;10.84;45.43
65131;BME280;51709;54.912;8.316;2023-05-03T18:31:58;102836.53;;;10.69;45.81
65131;BME280;51709;54.912;8.316;2023-05-03T18:37:19;102836.22;;;10.40;46.13
65131;BME280;51709;54.912;8.316;2023-05-03T18:42:44;102846.03;;;10.07;46.25
65131;BME280;51709;54.912;8.316;2023-05-03T18:48:05;102838.84;;;9.81;46.56
65131;BME280;51709;54.912;8.316;2023-05-03T18:53:27;102842.78;;;9.59;46.93
65131;BME280;51709;54.912;8.316;2023-05-03T18:58:51;102845.91;;;9.39;47.02
65131;BME280;51709;54.912;8.316;2023-05-03T19:04:11;102850.75;;;9.24;47.01
65131;BME280;51709;54.912;8.316;2023-05-03T19:09:33;102846.16;;;9.04;47.30
65131;BME280;51709;54.912;8.316;2023-05-03T19:14:54;102860.41;;;8.90;47.79
65131;BME280;51709;54.912;8.316;2023-05-03T19:20:15;102860.03;;;8.71;48.14
65131;BME280;51709;54.912;8.316;2023-05-03T19:25:36;102854.69;;;8.59;48.31
65131;BME280;51709;54.912;8.316;2023-05-03T19:31:01;102854.47;;;8.48;48.61
65131;BME280;51709;54.912;8.316;2023-05-03T19:36:22;102849.97;;;8.38;48.89
65131;BME280;51709;54.912;8.316;2023-05-03T19:41:43;102856.56;;;8.26;49.04
65131;BME280;51709;54.912;8.316;2023-05-03T19:47:04;102858.06;;;8.16;49.55
65131;BME280;51709;54.912;8.316;2023-05-03T19:52:25;102862.09;;;8.07;49.66
65131;BME280;51709;54.912;8.316;2023-05-03T19:57:46;102858.50;;;7.98;50.16
65131;BME280;51709;54.912;8.316;2023-05-03T20:03:06;102865.19;;;7.92;50.41
65131;BME280;51709;54.912;8.316;2023-05-03T20:08:27;102863.25;;;7.83;50.55
65131;BME280;51709;54.912;8.316;2023-05-03T20:13:48;102869.06;;;7.74;50.97
65131;BME280;51709;54.912;8.316;2023-05-03T20:19:09;102861.22;;;7.68;51.19
65131;BME280;51709;54.912;8.316;2023-05-03T20:24:29;102875.59;;;7.63;51.21
65131;BME280;51709;54.912;8.316;2023-05-03T20:29:50;102872.84;;;7.55;51.59
65131;BME280;51709;54.912;8.316;2023-05-03T20:35:11;102876.13;;;7.49;51.84
65131;BME280;51709;54.912;8.316;2023-05-03T20:40:32;102870.81;;;7.42;52.03
65131;BME280;51709;54.912;8.316;2023-05-03T20:45:53;102867.25;;;7.36;52.40
65131;BME280;51709;54.912;8.316;2023-05-03T20:51:14;102868.06;;;7.34;52.76
65131;BME280;51709;54.912;8.316;2023-05-03T20:56:34;102862.84;;;7.29;52.75
65131;BME280;51709;54.912;8.316;2023-05-03T21:01:55;102859.34;;;7.25;53.05
65131;BME280;51709;54.912;8.316;2023-05-03T21:07:16;102857.44;;;7.18;52.94
65131;BME280;51709;54.912;8.316;2023-05-03T21:12:36;102861.53;;;7.12;53.34
65131;BME280;51709;54.912;8.316;2023-05-03T21:17:57;102855.41;;;7.05;53.41
65131;BME280;51709;54.912;8.316;2023-05-03T21:23:18;102853.47;;;6.96;53.05
65131;BME280;51709;54.912;8.316;2023-05-03T21:28:39;102848.97;;;6.86;52.82
65131;BME280;51709;54.912;8.316;2023-05-03T21:34:00;102841.00;;;6.75;52.90
65131;BME280;51709;54.912;8.316;2023-05-03T21:39:22;102847.59;;;6.67;52.95
65131;BME280;51709;54.912;8.316;2023-05-03T21:44:46;102838.88;;;6.58;53.06
65131;BME280;51709;54.912;8.316;2023-05-03T21:50:07;102828.44;;;6.51;53.33
65131;BME280;51709;54.912;8.316;2023-05-03T21:55:28;102823.94;;;6.42;53.92
65131;BME280;51709;54.912;8.316;2023-05-03T22:00:48;102827.97;;;6.34;53.98
65131;BME280;51709;54.912;8.316;2023-05-03T22:06:09;102829.47;;;6.27;54.05
65131;BME280;51709;54.912;8.316;2023-05-03T22:11:30;102827.59;;;6.21;54.06
65131;BME280;51709;54.912;8.316;2023-05-03T22:16:50;102832.50;;;6.15;53.99
65131;BME280;51709;54.912;8.316;2023-05-03T22:22:11;102818.72;;;6.08;54.10
65131;BME280;51709;54.912;8.316;2023-05-03T22:27:31;102816.84;;;6.03;54.26
65131;BME280;51709;54.912;8.316;2023-05-03T22:32:52;102820.00;;;5.95;54.46
65131;BME280;51709;54.912;8.316;2023-05-03T22:38:13;102810.44;;;5.88;54.73
65131;BME280;51709;54.912;8.316;2023-05-03T22:43:33;102806.84;;;5.81;54.88
65131;BME280;51709;54.912;8.316;2023-05-03T22:48:54;102802.22;;;5.69;55.28
65131;BME280;51709;54.912;8.316;2023-05-03T22:54:14;102802.72;;;5.58;55.57
65131;BME280;51709;54.912;8.316;2023-05-03T22:59:35;102802.38;;;5.47;55.65
65131;BME280;51709;54.912;8.316;2023-05-03T23:04:56;102794.56;;;5.40;56.02
65131;BME280;51709;54.912;8.316;2023-05-03T23:10:16;102790.13;;;5.35;56.27
65131;BME280;51709;54.912;8.316;2023-05-03T23:15:37;102789.91;;;5.29;56.23
65131;BME280;51709;54.912;8.316;2023-05-03T23:20:58;102788.97;;;5.25;56.37
65131;BME280;51709;54.912;8.316;2023-05-03T23:26:19;102793.97;;;5.23;56.33
65131;BME280;51709;54.912;8.316;2023-05-03T23:31:40;102776.91;;;5.19;56.58
65131;BME280;51709;54.912;8.316;2023-05-03T23:37:01;102776.75;;;5.15;56.52
65131;BME280;51709;54.912;8.316;2023-05-03T23:42:22;102771.56;;;5.12;56.57
65131;BME280;51709;54.912;8.316;2023-05-03T23:47:43;102763.00;;;5.09;56.78
65131;BME280;51709;54.912;8.316;2023-05-03T23:53:03;102758.56;;;5.04;56.81
65131;BME280;51709;54.912;8.316;2023-05-03T23:58:24;102758.41;;;4.99;57.26
